createdAt,value
2023-03-05T00:00:49.097Z,4.01
2023-03-05T00:01:49.098Z,4.01
2023-03-05T00:02:49.091Z,4.04
2023-03-05T00:03:49.067Z,4.08
2023-03-05T00:04:49.081Z,4.07
2023-03-05T00:05:49.045Z,4.16
2023-03-05T00:06:49.029Z,4.14
2023-03-05T00:07:49.015Z,4.21
2023-03-05T00:08:49.029Z,4.15
2023-03-05T00:09:49.001Z,4.15
2023-03-05T00:10:48.988Z,4.12
2023-03-05T00:11:49.001Z,4.15
2023-03-05T00:12:48.989Z,4.10
2023-03-05T00:13:48.978Z,4.07
2023-03-05T00:14:48.978Z,4.16
2023-03-05T00:15:49.016Z,4.18
2023-03-05T00:16:48.969Z,4.12
2023-03-05T00:17:48.948Z,4.14
2023-03-05T00:18:48.946Z,4.10
2023-03-05T00:19:48.933Z,4.08
2023-03-05T00:20:48.935Z,4.10
2023-03-05T00:21:48.939Z,4.12
2023-03-05T00:22:48.922Z,4.04
2023-03-05T00:23:48.912Z,4.19
2023-03-05T00:24:48.899Z,4.18
2023-03-05T00:25:48.893Z,4.14
2023-03-05T00:26:48.918Z,4.03
2023-03-05T00:27:48.879Z,4.00
2023-03-05T00:28:48.881Z,4.01
2023-03-05T00:29:48.876Z,4.07
2023-03-05T00:30:48.908Z,4.03
2023-03-05T00:31:48.886Z,4.01
2023-03-05T00:32:48.873Z,4.03
2023-03-05T00:33:48.910Z,4.06
2023-03-05T00:34:48.839Z,4.01
2023-03-05T00:35:48.870Z,3.90
2023-03-05T00:36:48.855Z,3.89
2023-03-05T00:37:48.847Z,3.98
2023-03-05T00:38:48.812Z,3.90
2023-03-05T00:39:48.816Z,3.97
2023-03-05T00:40:48.801Z,3.90
2023-03-05T00:41:48.797Z,4.01
2023-03-05T00:42:48.794Z,3.90
2023-03-05T00:43:48.797Z,3.86
2023-03-05T00:44:48.771Z,3.85
2023-03-05T00:45:48.764Z,3.97
2023-03-05T00:46:48.835Z,3.92
2023-03-05T00:47:48.749Z,3.98
2023-03-05T00:48:48.763Z,3.94
2023-03-05T00:49:48.742Z,3.96
2023-03-05T00:50:48.728Z,3.97
2023-03-05T00:51:48.723Z,4.00
2023-03-05T00:52:48.744Z,4.10
2023-03-05T00:53:48.706Z,4.00
2023-03-05T00:54:48.714Z,4.06
2023-03-05T00:55:48.688Z,4.00
2023-03-05T00:56:48.687Z,3.97
2023-03-05T00:57:48.686Z,3.98
2023-03-05T00:58:48.685Z,3.89
2023-03-05T00:59:48.690Z,3.78
2023-03-05T01:00:48.668Z,3.71
2023-03-05T01:01:49.133Z,3.67
2023-03-05T01:02:48.651Z,3.71
2023-03-05T01:03:48.681Z,3.75
2023-03-05T01:04:48.669Z,3.71
2023-03-05T01:05:48.629Z,3.79
2023-03-05T01:06:48.612Z,3.80
2023-03-05T01:07:48.607Z,3.78
2023-03-05T01:08:48.617Z,3.86
2023-03-05T01:09:48.617Z,3.85
2023-03-05T01:10:48.582Z,3.85
2023-03-05T01:11:49.583Z,3.75
2023-03-05T01:12:48.577Z,3.79
2023-03-05T01:13:48.556Z,3.89
2023-03-05T01:14:48.563Z,3.89
2023-03-05T01:15:48.586Z,3.94
2023-03-05T01:16:48.550Z,3.80
2023-03-05T01:17:48.529Z,3.86
2023-03-05T01:18:48.540Z,3.85
2023-03-05T01:19:48.554Z,3.64
2023-03-05T01:20:48.503Z,3.70
2023-03-05T01:21:48.497Z,3.68
2023-03-05T01:22:48.491Z,3.61
2023-03-05T01:23:48.484Z,3.68
2023-03-05T01:24:48.471Z,3.57
2023-03-05T01:25:48.484Z,3.65
2023-03-05T01:26:48.488Z,3.58
2023-03-05T01:27:48.458Z,3.40
2023-03-05T01:28:48.458Z,3.54
2023-03-05T01:29:48.434Z,3.58
2023-03-05T01:30:48.446Z,3.54
2023-03-05T01:31:48.497Z,3.49
2023-03-05T01:32:48.428Z,3.54
2023-03-05T01:33:48.418Z,3.61
2023-03-05T01:34:48.408Z,3.58
2023-03-05T01:35:48.499Z,3.53
2023-03-05T01:36:48.398Z,3.49
2023-03-05T01:37:48.392Z,3.58
2023-03-05T01:38:48.387Z,3.57
2023-03-05T01:39:48.373Z,3.33
2023-03-05T01:40:48.373Z,3.50
2023-03-05T01:41:48.357Z,3.40
2023-03-05T01:42:48.374Z,3.52
2023-03-05T01:43:48.356Z,3.49
2023-03-05T01:44:48.344Z,3.52
2023-03-05T01:45:48.357Z,3.40
2023-03-05T01:46:48.320Z,3.43
2023-03-05T01:47:49.356Z,3.58
2023-03-05T01:48:49.313Z,3.46
2023-03-05T01:49:48.310Z,3.40
2023-03-05T01:50:48.318Z,3.40
2023-03-05T01:51:48.294Z,3.39
2023-03-05T01:52:48.297Z,3.58
2023-03-05T01:53:48.298Z,3.36
2023-03-05T01:54:48.290Z,3.49
2023-03-05T01:55:48.277Z,3.42
2023-03-05T01:56:48.264Z,3.49
2023-03-05T01:57:48.277Z,3.53
2023-03-05T01:58:48.254Z,3.62
2023-03-05T01:59:48.237Z,3.61
2023-03-05T02:00:48.348Z,3.54
2023-03-05T02:01:48.234Z,3.57
2023-03-05T02:02:48.223Z,3.65
2023-03-05T02:03:48.311Z,3.65
2023-03-05T02:04:48.203Z,3.62
2023-03-05T02:05:48.199Z,3.65
2023-03-05T02:06:48.197Z,3.67
2023-03-05T02:07:48.175Z,3.67
2023-03-05T02:08:48.183Z,3.65
2023-03-05T02:09:48.171Z,3.61
2023-03-05T02:10:48.161Z,3.61
2023-03-05T02:11:48.156Z,3.64
2023-03-05T02:12:48.148Z,3.68
2023-03-05T02:13:48.144Z,3.62
2023-03-05T02:14:48.162Z,3.64
2023-03-05T02:15:48.127Z,3.62
2023-03-05T02:16:48.156Z,3.62
2023-03-05T02:17:48.110Z,3.70
2023-03-05T02:18:48.117Z,3.78
2023-03-05T02:19:48.156Z,3.76
2023-03-05T02:20:48.105Z,3.86
2023-03-05T02:21:48.083Z,3.88
2023-03-05T02:22:48.107Z,3.76
2023-03-05T02:23:48.072Z,3.85
2023-03-05T02:24:49.078Z,3.79
2023-03-05T02:25:48.070Z,3.83
2023-03-05T02:26:48.054Z,3.71
2023-03-05T02:27:48.055Z,3.80
2023-03-05T02:28:48.053Z,3.88
2023-03-05T02:29:48.027Z,3.80
2023-03-05T02:30:48.042Z,3.82
2023-03-05T02:31:48.066Z,3.86
2023-03-05T02:32:48.116Z,3.80
2023-03-05T02:33:48.024Z,3.85
2023-03-05T02:34:48.019Z,3.86
2023-03-05T02:35:48.072Z,3.88
2023-03-05T02:36:47.992Z,3.92
2023-03-05T02:37:47.994Z,3.86
2023-03-05T02:38:47.989Z,3.89
2023-03-05T02:39:47.979Z,3.83
2023-03-05T02:40:47.970Z,3.92
2023-03-05T02:41:47.948Z,3.92
2023-03-05T02:42:47.968Z,3.86
2023-03-05T02:43:47.946Z,3.85
2023-03-05T02:44:47.948Z,3.75
2023-03-05T02:45:47.984Z,3.85
2023-03-05T02:46:48.916Z,3.67
2023-03-05T02:47:47.941Z,3.70
2023-03-05T02:48:47.907Z,3.85
2023-03-05T02:49:47.899Z,3.70
2023-03-05T02:50:47.900Z,3.68
2023-03-05T02:51:47.903Z,3.64
2023-03-05T02:52:47.899Z,3.64
2023-03-05T02:53:47.873Z,3.71
2023-03-05T02:54:47.873Z,3.64
2023-03-05T02:55:47.866Z,3.58
2023-03-05T02:56:47.862Z,3.71
2023-03-05T02:57:47.847Z,3.68
2023-03-05T02:58:47.854Z,3.50
2023-03-05T02:59:47.910Z,3.40
2023-03-05T03:00:47.826Z,3.40
2023-03-05T03:01:47.820Z,3.47
2023-03-05T03:02:47.814Z,3.50
2023-03-05T03:03:47.809Z,3.50
2023-03-05T03:04:47.801Z,3.43
2023-03-05T03:05:47.804Z,3.60
2023-03-05T03:06:47.784Z,3.52
2023-03-05T03:07:47.776Z,3.52
2023-03-05T03:08:47.793Z,3.54
2023-03-05T03:09:47.767Z,3.58
2023-03-05T03:10:47.768Z,3.58
2023-03-05T03:11:47.757Z,3.46
2023-03-05T03:12:47.743Z,3.43
2023-03-05T03:13:47.817Z,3.54
2023-03-05T03:14:47.732Z,3.43
2023-03-05T03:15:47.728Z,3.40
2023-03-05T03:16:47.770Z,3.33
2023-03-05T03:17:47.720Z,3.31
2023-03-05T03:18:47.759Z,3.42
2023-03-05T03:19:47.708Z,3.53
2023-03-05T03:20:47.693Z,3.50
2023-03-05T03:21:47.687Z,3.43
2023-03-05T03:22:47.685Z,3.44
2023-03-05T03:23:47.679Z,3.40
2023-03-05T03:24:47.690Z,3.46
2023-03-05T03:25:47.662Z,3.44
2023-03-05T03:26:47.656Z,3.43
2023-03-05T03:27:47.648Z,3.49
2023-03-05T03:28:47.635Z,3.42
2023-03-05T03:29:47.638Z,3.46
2023-03-05T03:30:47.645Z,3.49
2023-03-05T03:31:47.632Z,3.43
2023-03-05T03:32:47.612Z,3.50
2023-03-05T03:33:47.609Z,3.54
2023-03-05T03:34:47.589Z,3.60
2023-03-05T03:35:47.694Z,3.49
2023-03-05T03:36:47.585Z,3.60
2023-03-05T03:37:47.576Z,3.53
2023-03-05T03:38:47.577Z,3.46
2023-03-05T03:39:47.568Z,3.44
2023-03-05T03:40:47.575Z,3.47
2023-03-05T03:41:47.573Z,3.53
2023-03-05T03:42:47.545Z,3.58
2023-03-05T03:43:47.548Z,3.44
2023-03-05T03:44:47.534Z,3.42
2023-03-05T03:45:47.593Z,3.44
2023-03-05T03:46:47.532Z,3.42
2023-03-05T03:47:47.529Z,3.39
2023-03-05T03:48:47.505Z,3.46
2023-03-05T03:49:47.497Z,3.28
2023-03-05T03:50:47.481Z,3.34
2023-03-05T03:51:47.497Z,3.28
2023-03-05T03:52:47.478Z,3.27
2023-03-05T03:53:47.584Z,3.31
2023-03-05T03:54:47.519Z,3.18
2023-03-05T03:55:47.482Z,3.24
2023-03-05T03:56:47.495Z,3.24
2023-03-05T03:57:47.477Z,3.25
2023-03-05T03:58:47.439Z,3.21
2023-03-05T03:59:47.438Z,3.30
2023-03-05T04:00:47.434Z,3.39
2023-03-05T04:01:47.419Z,3.30
2023-03-05T04:02:47.476Z,3.25
2023-03-05T04:03:47.411Z,3.33
2023-03-05T04:04:47.404Z,3.27
2023-03-05T04:05:47.391Z,3.33
2023-03-05T04:06:47.391Z,3.33
2023-03-05T04:07:47.382Z,3.30
2023-03-05T04:08:47.374Z,3.33
2023-03-05T04:09:47.431Z,3.28
2023-03-05T04:10:47.359Z,3.34
2023-03-05T04:11:48.347Z,3.46
2023-03-05T04:12:47.359Z,3.43
2023-03-05T04:13:47.343Z,3.42
2023-03-05T04:14:47.344Z,3.46
2023-03-05T04:15:47.334Z,3.34
2023-03-05T04:16:47.311Z,3.44
2023-03-05T04:17:47.332Z,3.57
2023-03-05T04:18:47.312Z,3.60
2023-03-05T04:19:47.303Z,3.58
2023-03-05T04:20:47.285Z,3.58
2023-03-05T04:21:47.359Z,3.60
2023-03-05T04:22:47.286Z,3.54
2023-03-05T04:23:47.282Z,3.64
2023-03-05T04:24:47.279Z,3.54
2023-03-05T04:25:47.260Z,3.57
2023-03-05T04:26:47.248Z,3.49
2023-03-05T04:27:47.287Z,3.53
2023-03-05T04:28:47.257Z,3.52
2023-03-05T04:29:47.232Z,3.50
2023-03-05T04:30:47.257Z,3.49
2023-03-05T04:31:47.225Z,3.58
2023-03-05T04:32:47.222Z,3.50
2023-03-05T04:33:47.224Z,3.46
2023-03-05T04:34:47.206Z,3.44
2023-03-05T04:35:47.208Z,3.49
2023-03-05T04:36:47.189Z,3.58
2023-03-05T04:37:47.192Z,3.46
2023-03-05T04:38:47.188Z,3.40
2023-03-05T04:39:47.177Z,3.53
2023-03-05T04:40:47.167Z,3.49
2023-03-05T04:41:47.151Z,3.49
2023-03-05T04:42:47.150Z,3.47
2023-03-05T04:43:47.155Z,3.49
2023-03-05T04:44:47.206Z,3.36
2023-03-05T04:45:47.138Z,3.50
2023-03-05T04:46:47.204Z,3.43
2023-03-05T04:47:47.118Z,3.39
2023-03-05T04:48:47.103Z,3.46
2023-03-05T04:49:47.128Z,3.31
2023-03-05T04:50:47.094Z,3.43
2023-03-05T04:51:47.092Z,3.36
2023-03-05T04:52:47.086Z,3.30
2023-03-05T04:53:47.067Z,3.28
2023-03-05T04:54:47.061Z,3.34
2023-03-05T04:55:47.057Z,3.28
2023-03-05T04:56:47.026Z,3.34
2023-03-05T04:57:47.056Z,3.42
2023-03-05T04:58:47.032Z,3.31
2023-03-05T04:59:47.014Z,3.31
2023-03-05T05:00:47.007Z,3.39
2023-03-05T05:01:47.121Z,3.30
2023-03-05T05:02:47.158Z,3.36
2023-03-05T05:03:47.008Z,3.24
2023-03-05T05:04:46.990Z,3.28
2023-03-05T05:05:47.013Z,3.28
2023-03-05T05:06:46.990Z,3.31
2023-03-05T05:07:46.984Z,3.25
2023-03-05T05:08:47.010Z,3.39
2023-03-05T05:09:46.997Z,3.31
2023-03-05T05:10:47.007Z,3.28
2023-03-05T05:11:46.950Z,3.30
2023-03-05T05:12:46.966Z,3.34
2023-03-05T05:13:46.943Z,3.40
2023-03-05T05:14:46.922Z,3.30
2023-03-05T05:15:46.917Z,3.36
2023-03-05T05:16:46.911Z,3.28
2023-03-05T05:17:46.911Z,3.28
2023-03-05T05:18:46.898Z,3.33
2023-03-05T05:19:46.888Z,3.39
2023-03-05T05:20:46.865Z,3.40
2023-03-05T05:21:46.882Z,3.30
2023-03-05T05:22:46.880Z,3.34
2023-03-05T05:23:46.853Z,3.31
2023-03-05T05:24:46.862Z,3.28
2023-03-05T05:25:46.850Z,3.33
2023-03-05T05:26:46.840Z,3.40
2023-03-05T05:27:46.841Z,3.43
2023-03-05T05:28:46.841Z,3.43
2023-03-05T05:29:46.821Z,3.43
2023-03-05T05:30:46.825Z,3.33
2023-03-05T05:31:46.852Z,3.43
2023-03-05T05:32:46.818Z,3.53
2023-03-05T05:33:49.582Z,3.42
2023-03-05T05:34:46.791Z,3.53
2023-03-05T05:35:46.857Z,3.40
2023-03-05T05:36:46.776Z,3.52
2023-03-05T05:37:46.783Z,3.46
2023-03-05T05:38:46.768Z,3.44
2023-03-05T05:39:46.754Z,3.50
2023-03-05T05:40:46.756Z,3.36
2023-03-05T05:41:46.745Z,3.24
2023-03-05T05:42:46.733Z,3.25
2023-03-05T05:43:46.736Z,3.09
2023-03-05T05:44:46.718Z,3.09
2023-03-05T05:45:47.874Z,3.09
2023-03-05T05:46:46.755Z,3.15
2023-03-05T05:47:46.704Z,3.12
2023-03-05T05:48:46.723Z,3.15
2023-03-05T05:49:46.698Z,3.24
2023-03-05T05:50:46.689Z,3.31
2023-03-05T05:51:46.679Z,3.21
2023-03-05T05:52:46.676Z,3.16
2023-03-05T05:53:46.688Z,3.30
2023-03-05T05:54:46.661Z,3.30
2023-03-05T05:55:46.652Z,3.27
2023-03-05T05:56:46.641Z,3.25
2023-03-05T05:57:46.634Z,3.30
2023-03-05T05:58:46.636Z,3.30
2023-03-05T05:59:46.637Z,3.21
2023-03-05T06:00:46.627Z,3.21
2023-03-05T06:01:46.636Z,3.20
2023-03-05T06:02:46.646Z,3.05
2023-03-05T06:03:46.590Z,3.09
2023-03-05T06:04:46.606Z,3.15
2023-03-05T06:05:46.589Z,3.09
2023-03-05T06:06:46.578Z,3.12
2023-03-05T06:07:46.555Z,3.10
2023-03-05T06:08:46.586Z,3.02
2023-03-05T06:09:46.565Z,3.05
2023-03-05T06:10:46.543Z,3.05
2023-03-05T06:11:46.541Z,3.05
2023-03-05T06:12:46.538Z,2.95
2023-03-05T06:13:46.539Z,3.02
2023-03-05T06:14:46.530Z,3.02
2023-03-05T06:15:46.523Z,3.07
2023-03-05T06:16:46.528Z,3.00
2023-03-05T06:17:46.528Z,2.94
2023-03-05T06:18:46.501Z,3.05
2023-03-05T06:19:46.496Z,3.05
2023-03-05T06:20:46.498Z,3.13
2023-03-05T06:21:46.483Z,3.20
2023-03-05T06:22:46.475Z,3.16
2023-03-05T06:23:46.468Z,3.30
2023-03-05T06:24:46.472Z,3.30
2023-03-05T06:25:46.452Z,3.31
2023-03-05T06:26:46.462Z,3.33
2023-03-05T06:27:46.441Z,3.36
2023-03-05T06:28:46.438Z,3.43
2023-03-05T06:29:46.428Z,3.47
2023-03-05T06:30:46.535Z,3.39
2023-03-05T06:31:46.437Z,3.49
2023-03-05T06:32:46.404Z,3.46
2023-03-05T06:33:46.387Z,3.49
2023-03-05T06:34:46.382Z,3.54
2023-03-05T06:35:46.456Z,3.43
2023-03-05T06:36:46.372Z,3.44
2023-03-05T06:37:46.374Z,3.47
2023-03-05T06:38:48.400Z,3.52
2023-03-05T06:39:46.360Z,3.44
2023-03-05T06:40:46.452Z,3.53
2023-03-05T06:41:46.347Z,3.49
2023-03-05T06:42:46.327Z,3.61
2023-03-05T06:43:46.317Z,3.50
2023-03-05T06:44:48.361Z,3.47
2023-03-05T06:45:47.370Z,3.44
2023-03-05T06:46:46.319Z,3.44
2023-03-05T06:47:46.299Z,3.27
2023-03-05T06:48:46.290Z,3.23
2023-03-05T06:49:46.283Z,3.23
2023-03-05T06:50:46.278Z,3.24
2023-03-05T06:51:46.283Z,3.15
2023-03-05T06:52:46.266Z,3.20
2023-03-05T06:53:48.312Z,3.16
2023-03-05T06:54:46.241Z,3.28
2023-03-05T06:55:46.242Z,3.33
2023-03-05T06:56:46.240Z,3.36
2023-03-05T06:57:46.246Z,3.34
2023-03-05T06:58:46.298Z,3.44
2023-03-05T06:59:46.220Z,3.44
2023-03-05T07:00:46.207Z,3.61
2023-03-05T07:01:46.211Z,3.61
2023-03-05T07:02:46.271Z,3.61
2023-03-05T07:03:46.176Z,3.64
2023-03-05T07:04:46.188Z,3.72
2023-03-05T07:05:46.180Z,3.67
2023-03-05T07:06:46.173Z,3.70
2023-03-05T07:07:46.163Z,3.80
2023-03-05T07:08:46.188Z,3.75
2023-03-05T07:09:46.156Z,3.80
2023-03-05T07:10:46.141Z,3.89
2023-03-05T07:11:46.135Z,3.92
2023-03-05T07:12:46.126Z,3.96
2023-03-05T07:13:46.146Z,3.97
2023-03-05T07:14:46.115Z,4.04
2023-03-05T07:15:46.121Z,4.01
2023-03-05T07:16:46.095Z,4.10
2023-03-05T07:17:46.090Z,4.18
2023-03-05T07:18:46.084Z,4.15
2023-03-05T07:19:46.084Z,4.22
2023-03-05T07:20:46.132Z,4.26
2023-03-05T07:21:46.067Z,4.19
2023-03-05T07:22:46.056Z,4.24
2023-03-05T07:23:46.046Z,4.32
2023-03-05T07:24:46.067Z,4.34
2023-03-05T07:25:46.046Z,4.58
2023-03-05T07:26:47.942Z,4.65
2023-03-05T07:27:46.063Z,4.75
2023-03-05T07:28:46.043Z,4.89
2023-03-05T07:29:46.011Z,5.19
2023-03-05T07:30:46.108Z,5.28
2023-03-05T07:31:46.018Z,5.49
2023-03-05T07:32:45.994Z,5.41
2023-03-05T07:33:45.996Z,5.34
2023-03-05T07:34:45.981Z,5.34
2023-03-05T07:35:46.009Z,5.10
2023-03-05T07:36:45.988Z,5.01
2023-03-05T07:37:45.965Z,4.92
2023-03-05T07:38:45.957Z,4.92
2023-03-05T07:39:47.264Z,4.86
2023-03-05T07:40:46.943Z,4.89
2023-03-05T07:41:45.935Z,4.96
2023-03-05T07:42:45.939Z,5.05
2023-03-05T07:43:45.907Z,5.13
2023-03-05T07:44:45.913Z,5.22
2023-03-05T07:45:45.950Z,5.41
2023-03-05T07:46:45.897Z,5.49
2023-03-05T07:47:45.904Z,5.49
2023-03-05T07:48:45.895Z,5.57
2023-03-05T07:49:45.880Z,5.67
2023-03-05T07:50:45.889Z,5.56
2023-03-05T07:51:45.881Z,5.59
2023-03-05T07:52:45.849Z,5.64
2023-03-05T07:53:45.858Z,5.67
2023-03-05T07:54:45.837Z,5.52
2023-03-05T07:55:45.845Z,5.49
2023-03-05T07:56:45.840Z,5.49
2023-03-05T07:57:45.842Z,5.45
2023-03-05T07:58:45.811Z,5.49
2023-03-05T07:59:45.810Z,5.50
2023-03-05T08:00:45.812Z,5.38
2023-03-05T08:01:45.813Z,5.37
2023-03-05T08:02:45.810Z,5.25
2023-03-05T08:03:45.827Z,5.20
2023-03-05T08:04:45.780Z,4.95
2023-03-05T08:05:46.146Z,4.94
2023-03-05T08:06:45.816Z,4.89
2023-03-05T08:07:45.746Z,4.91
2023-03-05T08:08:45.755Z,4.73
2023-03-05T08:09:45.749Z,4.80
2023-03-05T08:10:45.724Z,4.69
2023-03-05T08:11:45.728Z,4.58
2023-03-05T08:12:45.729Z,4.57
2023-03-05T08:13:45.723Z,4.59
2023-03-05T08:14:45.734Z,4.65
2023-03-05T08:15:45.732Z,4.65
2023-03-05T08:16:47.880Z,4.77
2023-03-05T08:17:46.690Z,4.89
2023-03-05T08:18:45.676Z,4.96
2023-03-05T08:19:45.688Z,4.92
2023-03-05T08:20:45.664Z,4.92
2023-03-05T08:21:45.663Z,4.95
2023-03-05T08:22:45.679Z,5.13
2023-03-05T08:23:45.685Z,5.02
2023-03-05T08:24:45.645Z,5.04
2023-03-05T08:25:45.639Z,5.09
2023-03-05T08:26:45.637Z,5.27
2023-03-05T08:27:45.630Z,5.22
2023-03-05T08:28:45.631Z,5.30
2023-03-05T08:29:45.617Z,5.30
2023-03-05T08:30:45.600Z,5.41
2023-03-05T08:31:45.599Z,5.40
2023-03-05T08:32:45.602Z,5.49
2023-03-05T08:33:45.584Z,5.49
2023-03-05T08:34:45.594Z,5.50
2023-03-05T08:35:45.602Z,5.50
2023-03-05T08:36:45.558Z,5.59
2023-03-05T08:37:45.559Z,5.55
2023-03-05T08:38:45.551Z,5.59
2023-03-05T08:39:45.600Z,5.55
2023-03-05T08:40:45.539Z,5.53
2023-03-05T08:41:45.535Z,5.57
2023-03-05T08:42:45.520Z,5.46
2023-03-05T08:43:45.521Z,5.43
2023-03-05T08:44:45.524Z,5.38
2023-03-05T08:45:45.511Z,5.40
2023-03-05T08:46:45.582Z,5.35
2023-03-05T08:47:45.496Z,5.30
2023-03-05T08:48:45.500Z,5.32
2023-03-05T08:49:45.483Z,5.25
2023-03-05T08:50:45.472Z,5.14
2023-03-05T08:51:45.467Z,4.98
2023-03-05T08:52:45.469Z,5.01
2023-03-05T08:53:45.454Z,5.04
2023-03-05T08:54:45.453Z,5.13
2023-03-05T08:55:45.452Z,5.14
2023-03-05T08:56:45.436Z,5.20
2023-03-05T08:57:45.449Z,5.28
2023-03-05T08:58:45.430Z,5.55
2023-03-05T08:59:46.415Z,5.66
2023-03-05T09:00:45.412Z,5.77
2023-03-05T09:01:45.507Z,6.25
2023-03-05T09:02:45.429Z,6.73
2023-03-05T09:03:45.397Z,7.08
2023-03-05T09:04:45.386Z,7.26
2023-03-05T09:05:45.367Z,7.56
2023-03-05T09:06:46.402Z,7.92
2023-03-05T09:07:45.352Z,8.50
2023-03-05T09:08:45.364Z,8.71
2023-03-05T09:09:45.344Z,8.88
2023-03-05T09:10:45.342Z,9.25
2023-03-05T09:11:45.334Z,9.45
2023-03-05T09:12:45.323Z,9.70
2023-03-05T09:13:45.326Z,9.67
2023-03-05T09:14:45.309Z,9.67
2023-03-05T09:15:45.311Z,9.68
2023-03-05T09:16:45.367Z,9.60
2023-03-05T09:17:45.289Z,9.57
2023-03-05T09:18:45.291Z,9.52
2023-03-05T09:19:45.276Z,9.52
2023-03-05T09:20:45.268Z,9.52
2023-03-05T09:21:45.263Z,9.32
2023-03-05T09:22:45.244Z,9.32
2023-03-05T09:23:45.246Z,9.09
2023-03-05T09:24:45.243Z,8.96
2023-03-05T09:25:45.215Z,8.90
2023-03-05T09:26:45.246Z,8.84
2023-03-05T09:27:45.218Z,8.83
2023-03-05T09:28:45.210Z,8.65
2023-03-05T09:29:45.209Z,8.68
2023-03-05T09:30:45.201Z,8.68
2023-03-05T09:31:45.248Z,8.57
2023-03-05T09:32:45.201Z,8.33
2023-03-05T09:33:45.177Z,7.93
2023-03-05T09:34:45.158Z,7.59
2023-03-05T09:35:45.199Z,7.40
2023-03-05T09:36:45.164Z,7.20
2023-03-05T09:37:45.148Z,6.94
2023-03-05T09:38:45.137Z,6.90
2023-03-05T09:39:45.133Z,6.79
2023-03-05T09:40:45.137Z,6.72
2023-03-05T09:41:45.106Z,6.56
2023-03-05T09:42:45.189Z,6.54
2023-03-05T09:43:45.099Z,6.41
2023-03-05T09:44:45.150Z,6.47
2023-03-05T09:45:45.131Z,6.40
2023-03-05T09:46:45.082Z,6.28
2023-03-05T09:47:45.099Z,6.25
2023-03-05T09:48:45.077Z,6.09
2023-03-05T09:49:45.057Z,6.22
2023-03-05T09:50:45.057Z,6.16
2023-03-05T09:51:45.063Z,6.21
2023-03-05T09:52:45.070Z,6.29
2023-03-05T09:53:45.048Z,6.32
2023-03-05T09:54:45.035Z,6.28
2023-03-05T09:55:45.031Z,6.40
2023-03-05T09:56:45.007Z,6.40
2023-03-05T09:57:45.011Z,6.50
2023-03-05T09:58:45.006Z,6.48
2023-03-05T09:59:45.007Z,6.54
2023-03-05T10:00:44.987Z,6.59
2023-03-05T10:01:44.973Z,6.65
2023-03-05T10:02:45.007Z,6.66
2023-03-05T10:03:44.979Z,6.84
2023-03-05T10:04:44.980Z,7.01
2023-03-05T10:05:44.947Z,7.13
2023-03-05T10:06:44.949Z,7.26
2023-03-05T10:07:44.937Z,7.50
2023-03-05T10:08:44.925Z,7.71
2023-03-05T10:09:44.969Z,7.77
2023-03-05T10:10:44.926Z,8.04
2023-03-05T10:11:44.908Z,8.14
2023-03-05T10:12:45.900Z,8.11
2023-03-05T10:13:44.884Z,8.36
2023-03-05T10:14:44.901Z,8.54
2023-03-05T10:15:44.877Z,8.75
2023-03-05T10:16:44.889Z,8.87
2023-03-05T10:17:44.882Z,8.99
2023-03-05T10:18:44.861Z,9.01
2023-03-05T10:19:44.860Z,9.05
2023-03-05T10:20:44.853Z,8.84
2023-03-05T10:21:44.857Z,8.83
2023-03-05T10:22:44.831Z,8.73
2023-03-05T10:23:44.826Z,8.58
2023-03-05T10:24:44.836Z,8.54
2023-03-05T10:25:44.827Z,8.37
2023-03-05T10:26:44.799Z,7.96
2023-03-05T10:27:45.797Z,7.62
2023-03-05T10:28:44.794Z,7.53
2023-03-05T10:29:44.780Z,7.37
2023-03-05T10:30:44.778Z,7.41
2023-03-05T10:31:44.884Z,7.47
2023-03-05T10:32:44.790Z,7.40
2023-03-05T10:33:44.755Z,7.35
2023-03-05T10:34:44.752Z,7.44
2023-03-05T10:35:44.780Z,7.44
2023-03-05T10:36:44.732Z,7.52
2023-03-05T10:37:44.738Z,7.63
2023-03-05T10:38:44.861Z,7.69
2023-03-05T10:39:44.793Z,7.72
2023-03-05T10:40:44.705Z,7.66
2023-03-05T10:41:44.701Z,7.53
2023-03-05T10:42:44.684Z,7.27
2023-03-05T10:43:44.693Z,7.24
2023-03-05T10:44:44.684Z,7.27
2023-03-05T10:45:44.763Z,7.34
2023-03-05T10:46:44.668Z,7.38
2023-03-05T10:47:44.656Z,7.22
2023-03-05T10:48:44.678Z,7.12
2023-03-05T10:49:44.645Z,7.15
2023-03-05T10:50:44.645Z,7.07
2023-03-05T10:51:44.660Z,7.04
2023-03-05T10:52:44.621Z,7.07
2023-03-05T10:53:44.613Z,7.07
2023-03-05T10:54:44.612Z,7.16
2023-03-05T10:55:44.608Z,6.97
2023-03-05T10:56:44.602Z,6.97
2023-03-05T10:57:44.601Z,6.89
2023-03-05T10:58:44.591Z,6.95
2023-03-05T10:59:44.578Z,7.02
2023-03-05T11:00:44.591Z,6.83
2023-03-05T11:01:44.577Z,6.65
2023-03-05T11:02:44.633Z,6.58
2023-03-05T11:03:45.548Z,6.61
2023-03-05T11:04:44.565Z,6.62
2023-03-05T11:05:44.547Z,6.48
2023-03-05T11:06:44.541Z,6.51
2023-03-05T11:07:44.513Z,6.46
2023-03-05T11:08:44.509Z,6.43
2023-03-05T11:09:44.502Z,6.38
2023-03-05T11:10:44.513Z,6.35
2023-03-05T11:11:44.496Z,6.22
2023-03-05T11:12:44.469Z,6.19
2023-03-05T11:13:44.501Z,6.25
2023-03-05T11:14:44.471Z,6.04
2023-03-05T11:15:44.483Z,6.01
2023-03-05T11:16:44.448Z,6.03
2023-03-05T11:17:44.443Z,5.98
2023-03-05T11:18:44.467Z,5.89
2023-03-05T11:19:44.432Z,5.86
2023-03-05T11:20:44.420Z,5.92
2023-03-05T11:21:44.413Z,5.73
2023-03-05T11:22:44.398Z,5.82
2023-03-05T11:23:44.395Z,5.86
2023-03-05T11:24:44.416Z,5.88
2023-03-05T11:25:44.418Z,5.81
2023-03-05T11:26:44.373Z,5.86
2023-03-05T11:27:44.398Z,5.86
2023-03-05T11:28:44.354Z,5.73
2023-03-05T11:29:44.378Z,5.73
2023-03-05T11:30:44.349Z,5.67
2023-03-05T11:31:44.336Z,5.68
2023-03-05T11:32:44.321Z,5.57
2023-03-05T11:33:44.326Z,5.63
2023-03-05T11:34:44.328Z,5.53
2023-03-05T11:35:44.413Z,5.46
2023-03-05T11:36:44.301Z,5.56
2023-03-05T11:37:44.294Z,5.55
2023-03-05T11:38:44.305Z,5.48
2023-03-05T11:39:44.315Z,5.45
2023-03-05T11:40:44.291Z,5.31
2023-03-05T11:41:44.262Z,5.31
2023-03-05T11:42:44.324Z,5.27
2023-03-05T11:43:44.242Z,5.10
2023-03-05T11:44:44.258Z,5.14
2023-03-05T11:45:44.232Z,5.02
2023-03-05T11:46:44.258Z,5.02
2023-03-05T11:47:44.221Z,5.12
2023-03-05T11:48:44.208Z,5.23
2023-03-05T11:49:44.196Z,5.38
2023-03-05T11:50:44.279Z,5.45
2023-03-05T11:51:44.215Z,5.60
2023-03-05T11:52:44.177Z,5.81
2023-03-05T11:53:44.173Z,6.07
2023-03-05T11:54:44.188Z,6.21
2023-03-05T11:55:44.168Z,6.53
2023-03-05T11:56:44.173Z,6.81
2023-03-05T11:57:44.153Z,7.02
2023-03-05T11:58:44.150Z,7.37
2023-03-05T11:59:44.142Z,7.97
2023-03-05T12:00:44.151Z,8.44
2023-03-05T12:01:44.148Z,8.53
2023-03-05T12:02:44.165Z,8.50
2023-03-05T12:03:44.166Z,8.35
2023-03-05T12:04:44.116Z,8.29
2023-03-05T12:05:44.109Z,8.28
2023-03-05T12:06:44.520Z,7.99
2023-03-05T12:07:44.087Z,7.99
2023-03-05T12:08:44.080Z,7.79
2023-03-05T12:09:44.248Z,7.37
2023-03-05T12:10:44.409Z,7.19
2023-03-05T12:11:44.691Z,7.24
2023-03-05T12:12:44.596Z,7.31
2023-03-05T12:13:44.056Z,7.29
2023-03-05T12:14:44.047Z,7.27
2023-03-05T12:15:44.054Z,7.38
2023-03-05T12:16:44.031Z,7.31
2023-03-05T12:17:44.592Z,7.42
2023-03-05T12:18:44.010Z,7.58
2023-03-05T12:19:43.994Z,7.71
2023-03-05T12:20:44.360Z,7.82
2023-03-05T12:21:44.540Z,7.78
2023-03-05T12:22:44.546Z,7.84
2023-03-05T12:23:44.335Z,7.92
2023-03-05T12:24:43.981Z,7.96
2023-03-05T12:25:44.259Z,7.79
2023-03-05T12:26:44.279Z,7.62
2023-03-05T12:27:44.044Z,7.72
2023-03-05T12:28:44.377Z,7.50
2023-03-05T12:29:44.066Z,7.53
2023-03-05T12:30:43.976Z,7.37
2023-03-05T12:31:44.038Z,7.41
2023-03-05T12:32:44.030Z,7.49
2023-03-05T12:33:43.946Z,7.45
2023-03-05T12:34:44.191Z,7.63
2023-03-05T12:35:45.290Z,7.81
2023-03-05T12:36:44.054Z,7.84
2023-03-05T12:37:44.077Z,7.87
2023-03-05T12:38:43.908Z,7.99
2023-03-05T12:39:44.064Z,8.02
2023-03-05T12:40:43.976Z,8.11
2023-03-05T12:41:44.319Z,8.21
2023-03-05T12:42:43.878Z,8.30
2023-03-05T12:43:43.876Z,8.26
2023-03-05T12:44:43.888Z,8.30
2023-03-05T12:45:43.909Z,8.36
2023-03-05T12:46:43.940Z,8.90
2023-03-05T12:47:43.873Z,9.02
2023-03-05T12:48:43.871Z,9.10
2023-03-05T12:49:43.808Z,9.31
2023-03-05T12:50:43.849Z,9.31
2023-03-05T12:51:43.934Z,9.46
2023-03-05T12:52:43.841Z,9.46
2023-03-05T12:53:43.889Z,9.63
2023-03-05T12:54:43.810Z,9.67
2023-03-05T12:55:43.810Z,9.67
2023-03-05T12:56:43.895Z,9.57
2023-03-05T12:57:43.756Z,9.50
2023-03-05T12:58:43.780Z,9.24
2023-03-05T12:59:43.739Z,9.20
2023-03-05T13:00:43.838Z,9.13
2023-03-05T13:01:43.753Z,8.93
2023-03-05T13:02:43.721Z,8.76
2023-03-05T13:03:43.739Z,8.58
2023-03-05T13:04:43.740Z,8.58
2023-03-05T13:05:43.694Z,8.50
2023-03-05T13:06:43.688Z,8.35
2023-03-05T13:07:44.672Z,8.22
2023-03-05T13:08:43.681Z,8.30
2023-03-05T13:09:43.672Z,8.28
2023-03-05T13:10:43.670Z,8.20
2023-03-05T13:11:43.736Z,8.00
2023-03-05T13:12:43.679Z,8.08
2023-03-05T13:13:43.664Z,8.28
2023-03-05T13:14:43.752Z,8.35
2023-03-05T13:15:43.615Z,8.32
2023-03-05T13:16:43.662Z,8.71
2023-03-05T13:17:43.648Z,8.90
2023-03-05T13:18:43.613Z,8.78